createdAt,value
2018-07-14T00:01:35.526Z,18.25
2018-07-14T00:02:35.468Z,18.17
2018-07-14T00:04:28.261Z,18.26
2018-07-14T00:05:28.186Z,18.11
2018-07-14T00:07:20.952Z,17.96
2018-07-14T00:08:20.883Z,18.07
2018-07-14T00:10:13.680Z,18.09
2018-07-14T00:11:13.617Z,17.99
2018-07-14T00:13:06.404Z,17.98
2018-07-14T00:14:06.329Z,17.99
2018-07-14T00:15:59.125Z,18.01
2018-07-14T00:16:59.059Z,18.02
2018-07-14T00:18:51.865Z,17.86
2018-07-14T00:19:51.773Z,17.91
2018-07-14T00:21:44.588Z,17.86
2018-07-14T00:22:44.497Z,17.96
2018-07-14T00:24:37.282Z,17.83
2018-07-14T00:25:37.194Z,17.86
2018-07-14T00:27:29.985Z,17.91
2018-07-14T00:28:29.923Z,17.83
2018-07-14T00:30:22.725Z,17.87
2018-07-14T00:31:22.648Z,17.86
2018-07-14T00:33:15.445Z,17.79
2018-07-14T00:34:15.359Z,17.71
2018-07-14T00:36:08.161Z,17.68
2018-07-14T00:37:08.084Z,17.60
2018-07-14T00:39:00.901Z,17.58
2018-07-14T00:40:00.825Z,17.66
2018-07-14T00:41:53.629Z,17.54
2018-07-14T00:42:53.555Z,17.57
2018-07-14T00:44:46.350Z,17.47
2018-07-14T00:45:46.280Z,17.49
2018-07-14T00:47:39.093Z,17.47
2018-07-14T00:48:39.029Z,17.46
2018-07-14T00:50:31.821Z,17.51
2018-07-14T00:51:31.746Z,17.53
2018-07-14T00:53:24.520Z,17.47
2018-07-14T00:54:24.457Z,17.54
2018-07-14T00:56:17.252Z,17.66
2018-07-14T00:57:17.175Z,17.54
2018-07-14T00:59:09.943Z,17.66
2018-07-14T01:00:09.875Z,17.70
2018-07-14T01:02:02.647Z,17.70
2018-07-14T01:03:02.571Z,17.60
2018-07-14T01:04:55.361Z,17.63
2018-07-14T01:05:55.278Z,17.57
2018-07-14T01:07:48.068Z,17.68
2018-07-14T01:08:48.005Z,17.73
2018-07-14T01:10:40.787Z,17.77
2018-07-14T01:11:40.715Z,17.74
2018-07-14T01:13:33.488Z,17.80
2018-07-14T01:14:33.424Z,17.81
2018-07-14T01:16:26.211Z,17.89
2018-07-14T01:17:26.125Z,18.04
2018-07-14T01:19:18.934Z,17.98
2018-07-14T01:20:18.864Z,18.01
2018-07-14T01:22:11.637Z,17.99
2018-07-14T01:23:11.571Z,18.02
2018-07-14T01:25:04.349Z,17.99
2018-07-14T01:26:04.281Z,18.01
2018-07-14T01:27:57.052Z,17.98
2018-07-14T01:28:56.991Z,18.02
2018-07-14T01:30:49.774Z,18.02
2018-07-14T01:31:49.693Z,18.10
2018-07-14T01:33:42.474Z,18.10
2018-07-14T01:34:42.415Z,18.05
2018-07-14T01:36:35.203Z,18.02
2018-07-14T01:37:35.196Z,18.05
2018-07-14T01:39:27.904Z,18.02
2018-07-14T01:40:27.890Z,18.02
2018-07-14T01:42:20.621Z,17.96
2018-07-14T01:43:20.561Z,18.02
2018-07-14T01:45:13.325Z,17.91
2018-07-14T01:46:13.252Z,17.92
2018-07-14T01:48:06.044Z,17.99
2018-07-14T01:49:05.964Z,17.96
2018-07-14T01:50:58.761Z,18.01
2018-07-14T01:51:58.682Z,17.94
2018-07-14T01:53:51.470Z,17.94
2018-07-14T01:54:51.397Z,17.91
2018-07-14T01:56:44.188Z,17.86
2018-07-14T01:57:44.112Z,17.92
2018-07-14T01:59:36.923Z,17.83
2018-07-14T02:00:36.899Z,17.92
2018-07-14T02:02:29.614Z,17.89
2018-07-14T02:03:29.545Z,17.83
2018-07-14T02:05:22.412Z,17.80
2018-07-14T02:06:22.267Z,17.80
2018-07-14T02:08:15.046Z,17.86
2018-07-14T02:09:14.978Z,17.77
2018-07-14T02:11:07.826Z,17.95
2018-07-14T02:12:07.756Z,17.81
2018-07-14T02:14:00.527Z,17.96
2018-07-14T02:15:00.465Z,17.83
2018-07-14T02:16:53.275Z,17.80
2018-07-14T02:17:53.171Z,17.89
2018-07-14T02:19:45.954Z,17.92
2018-07-14T02:20:45.882Z,17.91
2018-07-14T02:22:38.681Z,17.91
2018-07-14T02:23:38.577Z,17.94
2018-07-14T02:25:31.369Z,18.05
2018-07-14T02:26:31.299Z,18.09
2018-07-14T02:28:24.113Z,18.04
2018-07-14T02:29:24.007Z,18.01
2018-07-14T02:31:16.821Z,18.10
2018-07-14T02:32:16.713Z,18.10
2018-07-14T02:34:09.484Z,18.04
2018-07-14T02:35:09.425Z,18.09
2018-07-14T02:37:02.254Z,18.07
2018-07-14T02:38:02.173Z,18.01
2018-07-14T02:39:54.974Z,18.04
2018-07-14T02:40:54.898Z,17.92
2018-07-14T02:42:47.662Z,17.89
2018-07-14T02:43:47.595Z,18.01
2018-07-14T02:45:40.383Z,17.91
2018-07-14T02:46:40.314Z,17.87
2018-07-14T02:48:33.086Z,17.96
2018-07-14T02:49:33.010Z,18.01
2018-07-14T02:51:25.800Z,18.02
2018-07-14T02:52:25.723Z,18.07
2018-07-14T02:54:18.489Z,17.99
2018-07-14T02:55:18.420Z,17.98
2018-07-14T02:57:11.205Z,17.94
2018-07-14T02:58:11.132Z,17.92
2018-07-14T03:00:03.902Z,17.83
2018-07-14T03:01:03.841Z,17.94
2018-07-14T03:02:56.613Z,17.81
2018-07-14T03:03:56.540Z,17.81
2018-07-14T03:05:49.332Z,17.84
2018-07-14T03:06:49.263Z,17.81
2018-07-14T03:08:42.024Z,17.84
2018-07-14T03:09:42.025Z,17.83
2018-07-14T03:11:34.741Z,17.79
2018-07-14T03:12:34.686Z,17.84
2018-07-14T03:14:27.453Z,17.70
2018-07-14T03:15:27.376Z,17.74
2018-07-14T03:17:20.163Z,17.73
2018-07-14T03:18:20.083Z,17.71
2018-07-14T03:20:12.848Z,17.65
2018-07-14T03:21:12.791Z,17.65
2018-07-14T03:23:05.564Z,17.57
2018-07-14T03:24:05.491Z,17.62
2018-07-14T03:25:58.272Z,17.74
2018-07-14T03:26:58.202Z,17.77
2018-07-14T03:28:50.970Z,17.73
2018-07-14T03:29:50.901Z,17.73
2018-07-14T03:31:43.697Z,17.70
2018-07-14T03:32:43.620Z,17.73
2018-07-14T03:34:36.404Z,17.73
2018-07-14T03:35:36.344Z,17.66
2018-07-14T03:37:29.126Z,17.58
2018-07-14T03:38:29.050Z,17.74
2018-07-14T03:40:21.832Z,17.65
2018-07-14T03:41:21.765Z,17.58
2018-07-14T03:43:14.567Z,17.55
2018-07-14T03:44:14.486Z,17.47
2018-07-14T03:46:07.254Z,17.40
2018-07-14T03:47:07.181Z,17.40
2018-07-14T03:48:59.958Z,17.38
2018-07-14T03:49:59.884Z,17.33
2018-07-14T03:51:52.671Z,17.32
2018-07-14T03:52:52.601Z,17.42
2018-07-14T03:54:45.368Z,17.42
2018-07-14T03:55:45.296Z,17.36
2018-07-14T03:57:38.086Z,17.39
2018-07-14T03:58:38.012Z,17.47
2018-07-14T04:00:30.789Z,17.51
2018-07-14T04:01:30.724Z,17.45
2018-07-14T04:03:23.508Z,17.43
2018-07-14T04:04:23.436Z,17.43
2018-07-14T04:06:16.255Z,17.51
2018-07-14T04:07:16.156Z,17.51
2018-07-14T04:09:08.917Z,17.51
2018-07-14T04:10:08.899Z,17.57
2018-07-14T04:12:01.634Z,17.62
2018-07-14T04:13:01.581Z,17.62
2018-07-14T04:14:54.332Z,17.68
2018-07-14T04:15:54.266Z,17.70
2018-07-14T04:17:47.077Z,17.68
2018-07-14T04:18:46.997Z,17.71
2018-07-14T04:20:39.761Z,17.77
2018-07-14T04:21:39.706Z,17.70
2018-07-14T04:23:32.489Z,17.65
2018-07-14T04:24:32.410Z,17.89
2018-07-14T04:26:25.196Z,17.87
2018-07-14T04:27:25.121Z,17.81
2018-07-14T04:29:17.905Z,17.73
2018-07-14T04:30:17.845Z,17.87
2018-07-14T04:32:10.626Z,17.81
2018-07-14T04:33:10.554Z,17.80
2018-07-14T04:35:03.359Z,17.84
2018-07-14T04:36:03.271Z,17.80
2018-07-14T04:37:56.048Z,17.91
2018-07-14T04:38:55.970Z,17.94
2018-07-14T04:40:48.756Z,17.95
2018-07-14T04:41:48.678Z,18.10
2018-07-14T04:43:41.494Z,18.11
2018-07-14T04:44:41.393Z,18.20
2018-07-14T04:46:34.195Z,18.34
2018-07-14T04:47:34.137Z,18.39
2018-07-14T04:49:26.946Z,18.42
2018-07-14T04:50:26.832Z,18.46
2018-07-14T04:52:19.644Z,18.62
2018-07-14T04:53:19.564Z,18.75
2018-07-14T04:55:12.324Z,18.94
2018-07-14T04:56:12.285Z,18.94
2018-07-14T04:58:05.051Z,19.05
2018-07-14T04:59:04.985Z,19.13
2018-07-14T05:00:57.778Z,19.23
2018-07-14T05:01:57.724Z,19.16
2018-07-14T05:03:50.526Z,19.20
2018-07-14T05:04:50.446Z,19.21
2018-07-14T05:06:43.239Z,19.23
2018-07-14T05:07:43.204Z,19.21
2018-07-14T05:09:35.966Z,19.17
2018-07-14T05:10:35.866Z,19.28
2018-07-14T05:12:28.653Z,19.23
2018-07-14T05:13:28.575Z,19.31
2018-07-14T05:15:21.368Z,19.24
2018-07-14T05:16:21.289Z,19.31
2018-07-14T05:18:14.067Z,19.25
2018-07-14T05:19:13.994Z,19.21
2018-07-14T05:21:06.785Z,19.50
2018-07-14T05:22:06.726Z,19.52
2018-07-14T05:23:59.511Z,19.67
2018-07-14T05:24:59.451Z,19.55
2018-07-14T05:26:52.240Z,19.68
2018-07-14T05:27:52.172Z,19.78
2018-07-14T05:29:44.955Z,19.83
2018-07-14T05:30:44.888Z,19.78
2018-07-14T05:32:37.692Z,19.82
2018-07-14T05:33:37.621Z,19.75
2018-07-14T05:35:30.403Z,19.87
2018-07-14T05:36:30.331Z,20.02
2018-07-14T05:38:23.419Z,20.88
2018-07-14T05:39:23.092Z,20.87
2018-07-14T05:41:15.890Z,20.61
2018-07-14T05:42:15.836Z,20.53
2018-07-14T05:44:08.733Z,20.54
2018-07-14T05:45:08.575Z,20.79
2018-07-14T05:47:01.358Z,21.00
2018-07-14T05:48:01.287Z,21.22
2018-07-14T05:49:54.073Z,21.73
2018-07-14T05:50:54.018Z,21.53
2018-07-14T05:52:46.816Z,21.36
2018-07-14T05:53:46.739Z,21.31
2018-07-14T05:55:39.524Z,21.34
2018-07-14T05:56:39.455Z,21.51
2018-07-14T05:58:32.288Z,21.21
2018-07-14T05:59:32.204Z,21.08
2018-07-14T06:01:24.978Z,20.66
2018-07-14T06:02:24.932Z,20.56
2018-07-14T06:04:17.712Z,20.63
2018-07-14T06:05:17.666Z,20.60
2018-07-14T06:07:10.432Z,20.82
2018-07-14T06:08:10.374Z,20.72
2018-07-14T06:10:03.150Z,20.79
2018-07-14T06:11:03.081Z,20.83
2018-07-14T06:12:55.873Z,21.15
2018-07-14T06:13:55.800Z,21.52
2018-07-14T06:15:48.621Z,22.17
2018-07-14T06:16:48.571Z,22.41
2018-07-14T06:18:41.371Z,24.23
2018-07-14T06:19:41.411Z,24.71
2018-07-14T06:21:34.097Z,24.92
2018-07-14T06:22:34.031Z,24.36
2018-07-14T06:24:26.803Z,23.93
2018-07-14T06:25:26.740Z,23.75
2018-07-14T06:27:19.542Z,24.11
2018-07-14T06:28:19.485Z,23.90
2018-07-14T06:30:12.304Z,23.68
2018-07-14T06:31:12.280Z,23.45
2018-07-14T06:33:05.034Z,22.97
2018-07-14T06:34:05.002Z,23.71
2018-07-14T06:35:57.748Z,24.46
2018-07-14T06:36:57.726Z,25.12
2018-07-14T06:38:50.492Z,24.93
2018-07-14T06:39:50.428Z,24.46
2018-07-14T06:41:43.232Z,24.18
2018-07-14T06:42:43.172Z,24.55
2018-07-14T06:44:36.046Z,24.11
2018-07-14T06:45:35.928Z,23.69
2018-07-14T06:47:28.751Z,23.59
2018-07-14T06:48:28.696Z,23.39
2018-07-14T06:50:21.482Z,23.38
2018-07-14T06:51:21.423Z,23.34
2018-07-14T06:53:14.212Z,23.01
2018-07-14T06:54:14.211Z,22.75
2018-07-14T06:56:06.939Z,22.66
2018-07-14T06:57:06.873Z,22.54
2018-07-14T06:58:59.709Z,23.00
2018-07-14T06:59:59.608Z,23.59
2018-07-14T07:01:52.404Z,23.87
2018-07-14T07:02:52.346Z,23.81
2018-07-14T07:04:45.172Z,24.24
2018-07-14T07:05:45.096Z,23.92
2018-07-14T07:07:37.918Z,24.93
2018-07-14T07:08:37.844Z,25.30
2018-07-14T07:10:30.622Z,25.63
2018-07-14T07:11:30.582Z,25.86
2018-07-14T07:13:23.362Z,25.96
2018-07-14T07:14:23.300Z,25.29
2018-07-14T07:16:16.146Z,25.12
2018-07-14T07:17:16.092Z,25.27
2018-07-14T07:19:08.908Z,24.46
2018-07-14T07:20:08.806Z,24.66
2018-07-14T07:22:01.627Z,25.97
2018-07-14T07:23:01.569Z,26.16
2018-07-14T07:24:54.368Z,26.72
2018-07-14T07:25:54.295Z,27.39
2018-07-14T07:27:47.140Z,27.50
2018-07-14T07:28:47.069Z,26.72
2018-07-14T07:30:39.851Z,26.06
2018-07-14T07:31:39.835Z,26.21
2018-07-14T07:33:32.646Z,25.83
2018-07-14T07:34:32.599Z,25.79
2018-07-14T07:36:25.659Z,26.08
2018-07-14T07:37:25.302Z,26.19
2018-07-14T07:39:18.126Z,26.64
2018-07-14T07:40:18.058Z,26.81
2018-07-14T07:42:10.868Z,26.65
2018-07-14T07:43:10.877Z,26.83
2018-07-14T07:45:03.623Z,27.58
2018-07-14T07:46:03.548Z,27.55
2018-07-14T07:47:56.372Z,27.43
2018-07-14T07:48:56.296Z,27.01
2018-07-14T07:50:49.109Z,25.86
2018-07-14T07:51:49.050Z,25.66
2018-07-14T07:53:41.858Z,25.64
2018-07-14T07:54:41.797Z,25.63
2018-07-14T07:56:34.626Z,25.26
2018-07-14T07:57:34.550Z,24.68
2018-07-14T07:59:27.351Z,24.12
2018-07-14T08:00:27.296Z,24.14
2018-07-14T08:02:20.084Z,23.94
2018-07-14T08:03:20.071Z,24.67
2018-07-14T08:05:12.829Z,25.63
2018-07-14T08:06:12.767Z,25.71
2018-07-14T08:08:05.566Z,26.03
2018-07-14T08:09:05.513Z,26.01
2018-07-14T08:10:58.355Z,25.56
2018-07-14T08:11:58.310Z,25.56
2018-07-14T08:13:51.128Z,25.53
2018-07-14T08:14:51.066Z,26.13
2018-07-14T08:16:43.899Z,27.05
2018-07-14T08:17:43.854Z,27.40
2018-07-14T08:19:36.673Z,27.65
2018-07-14T08:20:36.605Z,27.88
2018-07-14T08:22:29.474Z,28.14
2018-07-14T08:23:29.416Z,28.57
2018-07-14T08:25:22.276Z,28.62
2018-07-14T08:26:22.207Z,28.55
2018-07-14T08:28:15.016Z,28.21
2018-07-14T08:29:14.961Z,28.52
2018-07-14T08:31:07.796Z,28.57
2018-07-14T08:32:07.725Z,28.20
2018-07-14T08:34:00.553Z,28.60
2018-07-14T08:35:00.478Z,28.64
2018-07-14T08:36:53.309Z,28.43
2018-07-14T08:37:53.229Z,28.21
2018-07-14T08:39:46.566Z,27.98
2018-07-14T08:40:46.514Z,27.83
2018-07-14T08:42:39.315Z,27.69
2018-07-14T08:43:39.285Z,27.68
2018-07-14T08:45:32.096Z,27.62
2018-07-14T08:46:32.037Z,27.69
2018-07-14T08:48:24.889Z,27.49
2018-07-14T08:49:24.792Z,27.76
2018-07-14T08:51:17.705Z,27.98
2018-07-14T08:52:17.589Z,27.69
2018-07-14T08:54:10.401Z,27.43
2018-07-14T08:55:10.349Z,27.18
2018-07-14T08:57:03.200Z,27.62
2018-07-14T08:58:03.194Z,27.78
2018-07-14T08:59:55.942Z,27.76
2018-07-14T09:00:55.890Z,28.06
2018-07-14T09:02:48.740Z,27.95
2018-07-14T09:03:48.708Z,27.93
2018-07-14T09:05:41.525Z,28.33
2018-07-14T09:06:41.464Z,28.30
2018-07-14T09:08:34.331Z,28.77
2018-07-14T09:09:34.273Z,29.07
2018-07-14T09:11:27.085Z,29.14
2018-07-14T09:12:27.029Z,28.79
2018-07-14T09:14:19.868Z,28.62
2018-07-14T09:15:19.798Z,28.60
2018-07-14T09:17:12.615Z,28.83
2018-07-14T09:18:12.570Z,28.83
2018-07-14T09:20:05.398Z,28.79
2018-07-14T09:21:05.353Z,28.74
2018-07-14T09:22:58.180Z,28.74
2018-07-14T09:23:58.124Z,28.61
2018-07-14T09:25:50.972Z,28.61
2018-07-14T09:26:50.892Z,28.74
2018-07-14T09:28:43.701Z,28.70
2018-07-14T09:29:43.656Z,28.42
2018-07-14T09:31:36.478Z,28.55
2018-07-14T09:32:36.483Z,28.60
2018-07-14T09:34:29.257Z,28.60
2018-07-14T09:35:29.179Z,28.42
2018-07-14T09:37:21.977Z,28.46
2018-07-14T09:38:21.927Z,28.43
2018-07-14T09:40:14.747Z,28.28
2018-07-14T09:41:14.688Z,28.46
2018-07-14T09:43:07.478Z,28.62
2018-07-14T09:44:07.516Z,28.55
2018-07-14T09:46:00.266Z,28.72
2018-07-14T09:47:00.195Z,28.79
2018-07-14T09:48:53.017Z,28.50
2018-07-14T09:49:52.955Z,28.67
2018-07-14T09:51:45.814Z,28.82
2018-07-14T09:52:45.712Z,28.77
2018-07-14T09:54:37.574Z,28.98
2018-07-14T09:55:37.504Z,28.89
2018-07-14T09:57:30.300Z,28.85
2018-07-14T09:58:30.251Z,28.70
2018-07-14T10:00:23.057Z,28.85
2018-07-14T10:01:23.006Z,28.74
2018-07-14T10:03:15.834Z,29.05
2018-07-14T10:04:15.768Z,29.05
2018-07-14T10:06:08.651Z,29.08
2018-07-14T10:07:08.539Z,29.11
2018-07-14T10:09:01.524Z,29.17
2018-07-14T10:10:01.454Z,29.12
2018-07-14T10:11:54.443Z,29.12
2018-07-14T10:12:54.304Z,29.25
2018-07-14T10:14:47.246Z,29.18
2018-07-14T10:15:47.150Z,29.25
2018-07-14T10:17:40.068Z,28.97
2018-07-14T10:18:39.980Z,28.87
2018-07-14T10:20:32.700Z,28.73
2018-07-14T10:21:32.644Z,28.72
2018-07-14T10:23:25.601Z,28.69
2018-07-14T10:24:25.564Z,28.43
2018-07-14T10:26:18.395Z,28.43
2018-07-14T10:27:18.345Z,28.55
2018-07-14T10:29:11.258Z,28.67
2018-07-14T10:30:11.137Z,28.85
2018-07-14T10:32:04.032Z,28.52
2018-07-14T10:33:03.913Z,28.54
2018-07-14T10:34:56.788Z,28.57
2018-07-14T10:35:56.683Z,28.69
2018-07-14T10:37:49.543Z,28.69
2018-07-14T10:38:49.447Z,28.74
2018-07-14T10:40:42.259Z,28.92
2018-07-14T10:41:42.201Z,29.02
2018-07-14T10:43:35.005Z,29.29
2018-07-14T10:44:34.952Z,29.18
2018-07-14T10:46:27.810Z,29.36
2018-07-14T10:47:27.712Z,29.37
2018-07-14T10:49:20.650Z,29.30
2018-07-14T10:50:20.529Z,29.03
2018-07-14T10:52:13.299Z,29.00
2018-07-14T10:53:13.238Z,29.02
2018-07-14T10:55:06.047Z,29.33
2018-07-14T10:56:06.005Z,29.30
2018-07-14T10:57:58.875Z,29.49
2018-07-14T10:58:58.726Z,29.36
2018-07-14T11:00:51.610Z,28.72
2018-07-14T11:01:51.546Z,28.65
2018-07-14T11:03:44.350Z,28.85
2018-07-14T11:04:44.349Z,28.88
2018-07-14T11:06:37.159Z,29.05
2018-07-14T11:07:37.104Z,29.05
2018-07-14T11:09:29.940Z,29.12
2018-07-14T11:10:29.849Z,29.12
2018-07-14T11:12:22.680Z,29.39
2018-07-14T11:13:22.596Z,29.44
2018-07-14T11:15:15.407Z,29.45
2018-07-14T11:16:15.342Z,29.42
2018-07-14T11:18:08.291Z,29.51
2018-07-14T11:19:08.349Z,29.44
2018-07-14T11:21:01.068Z,29.48
2018-07-14T11:22:00.983Z,29.48
2018-07-14T11:23:53.824Z,29.32
2018-07-14T11:24:53.749Z,29.27
2018-07-14T11:26:46.607Z,29.05
2018-07-14T11:27:46.550Z,28.88
2018-07-14T11:29:39.369Z,28.60
2018-07-14T11:30:39.313Z,28.45
2018-07-14T11:32:32.170Z,28.54
2018-07-14T11:33:32.108Z,28.30
2018-07-14T11:35:24.911Z,28.02
2018-07-14T11:36:24.899Z,27.99
2018-07-14T11:38:17.685Z,27.88
2018-07-14T11:39:17.625Z,28.13
2018-07-14T11:41:10.471Z,27.95
2018-07-14T11:42:10.416Z,28.08
2018-07-14T11:44:03.217Z,28.23
2018-07-14T11:45:03.161Z,28.05
2018-07-14T11:46:56.116Z,27.84
2018-07-14T11:47:56.101Z,27.65
2018-07-14T11:49:48.841Z,27.08
2018-07-14T11:50:48.845Z,26.97
2018-07-14T11:52:41.785Z,26.28
2018-07-14T11:53:41.665Z,26.17
2018-07-14T11:55:34.480Z,25.67
2018-07-14T11:56:34.405Z,25.44
2018-07-14T11:58:27.225Z,25.24
2018-07-14T11:59:27.206Z,25.24
2018-07-14T12:01:19.992Z,25.17
2018-07-14T12:02:19.903Z,25.11
2018-07-14T12:04:12.783Z,25.07
2018-07-14T12:05:12.648Z,24.99
2018-07-14T12:07:05.554Z,24.93
2018-07-14T12:08:05.460Z,24.75
2018-07-14T12:09:58.317Z,24.36
2018-07-14T12:10:58.236Z,24.39
2018-07-14T12:12:51.202Z,24.48
2018-07-14T12:13:51.014Z,24.48
2018-07-14T12:15:43.875Z,24.59
2018-07-14T12:16:43.780Z,24.59
2018-07-14T12:18:36.590Z,24.64
2018-07-14T12:19:36.584Z,24.61
2018-07-14T12:21:29.362Z,24.55
2018-07-14T12:22:29.295Z,24.48
2018-07-14T12:24:22.102Z,24.48
2018-07-14T12:25:22.056Z,24.51
2018-07-14T12:27:14.842Z,24.33
2018-07-14T12:28:14.772Z,24.41
2018-07-14T12:30:07.631Z,24.51
2018-07-14T12:31:07.641Z,24.45
2018-07-14T12:33:00.890Z,24.41
2018-07-14T12:34:00.837Z,24.33
2018-07-14T12:35:53.657Z,24.42
2018-07-14T12:36:53.562Z,24.49
2018-07-14T12:38:46.397Z,24.36
2018-07-14T12:39:46.335Z,24.41
2018-07-14T12:41:39.154Z,24.39
2018-07-14T12:42:39.080Z,24.49
2018-07-14T12:44:31.910Z,24.33
2018-07-14T12:45:31.831Z,24.33
2018-07-14T12:47:24.657Z,24.39
2018-07-14T12:48:24.590Z,24.46
2018-07-14T12:50:17.372Z,24.51
2018-07-14T12:51:17.325Z,24.60
2018-07-14T12:53:10.161Z,24.66
2018-07-14T12:54:10.124Z,24.64
2018-07-14T12:56:02.920Z,24.66
2018-07-14T12:57:02.838Z,24.67
2018-07-14T12:58:55.639Z,24.46
2018-07-14T12:59:55.562Z,24.51
2018-07-14T13:01:48.417Z,24.37
2018-07-14T13:02:48.330Z,24.44
2018-07-14T13:04:41.099Z,24.48
2018-07-14T13:05:41.035Z,24.55
2018-07-14T13:07:33.984Z,24.55
2018-07-14T13:08:33.784Z,24.39
2018-07-14T13:10:26.579Z,24.41
2018-07-14T13:11:26.484Z,24.39
2018-07-14T13:13:19.320Z,24.48
2018-07-14T13:14:19.226Z,24.41
2018-07-14T13:16:12.015Z,24.33
2018-07-14T13:17:12.021Z,24.34
2018-07-14T13:19:04.803Z,24.37
2018-07-14T13:20:04.691Z,24.45
2018-07-14T13:21:57.494Z,24.48
2018-07-14T13:22:57.452Z,24.34
2018-07-14T13:24:50.331Z,24.26
2018-07-14T13:25:50.169Z,24.27
2018-07-14T13:27:42.948Z,24.21
2018-07-14T13:28:42.867Z,24.30
2018-07-14T13:30:35.798Z,24.27
2018-07-14T13:31:35.606Z,24.27
2018-07-14T13:33:28.462Z,24.30
2018-07-14T13:34:28.374Z,24.36
2018-07-14T13:36:21.227Z,24.30
2018-07-14T13:37:21.125Z,24.26
2018-07-14T13:39:14.101Z,24.18
2018-07-14T13:40:13.965Z,24.26
2018-07-14T13:42:06.687Z,24.02
2018-07-14T13:43:06.604Z,24.16
2018-07-14T13:44:59.415Z,24.18
2018-07-14T13:45:59.368Z,24.16
2018-07-14T13:47:52.139Z,24.06
2018-07-14T13:48:52.070Z,24.08
2018-07-14T13:50:44.959Z,24.15
2018-07-14T13:51:44.836Z,24.21
2018-07-14T13:53:37.809Z,24.12
2018-07-14T13:54:37.653Z,24.18
2018-07-14T13:56:30.499Z,24.12
2018-07-14T13:57:30.421Z,24.19
2018-07-14T13:59:23.219Z,24.04
2018-07-14T14:00:23.155Z,24.18
2018-07-14T14:02:15.950Z,24.12
2018-07-14T14:03:15.868Z,24.14
2018-07-14T14:05:08.698Z,24.19
2018-07-14T14:06:08.603Z,24.12
2018-07-14T14:08:01.675Z,24.06
2018-07-14T14:09:01.408Z,24.08
2018-07-14T14:10:54.200Z,24.11
2018-07-14T14:11:54.119Z,24.08
2018-07-14T14:13:46.927Z,24.05
2018-07-14T14:14:46.854Z,23.97
2018-07-14T14:16:39.641Z,23.94
2018-07-14T14:17:39.586Z,23.99
2018-07-14T14:19:32.387Z,23.89
2018-07-14T14:20:32.305Z,23.96
2018-07-14T14:22:25.177Z,23.92
2018-07-14T14:23:25.099Z,23.96
2018-07-14T14:25:17.955Z,24.05
2018-07-14T14:26:17.867Z,24.00
2018-07-14T14:28:10.665Z,24.06
2018-07-14T14:29:10.611Z,24.09
2018-07-14T14:31:03.385Z,24.08
2018-07-14T14:32:03.325Z,24.09
2018-07-14T14:33:56.121Z,24.08
2018-07-14T14:34:56.065Z,24.00
2018-07-14T14:36:48.885Z,24.00
2018-07-14T14:37:48.805Z,24.05
2018-07-14T14:39:41.603Z,23.99
2018-07-14T14:40:41.531Z,23.94
2018-07-14T14:42:34.338Z,23.86
2018-07-14T14:43:34.262Z,23.94
2018-07-14T14:45:27.055Z,24.00
2018-07-14T14:46:26.998Z,24.00
2018-07-14T14:48:20.048Z,23.84
2018-07-14T14:49:19.834Z,23.87
2018-07-14T14:51:12.664Z,23.90
2018-07-14T14:52:12.607Z,23.96
2018-07-14T14:54:05.408Z,23.93
2018-07-14T14:55:05.316Z,23.84
2018-07-14T14:56:59.050Z,23.86
2018-07-14T14:57:58.385Z,23.78
2018-07-14T14:59:51.768Z,23.74
2018-07-14T15:00:51.573Z,23.79
2018-07-14T15:02:43.977Z,23.84
2018-07-14T15:03:43.998Z,23.81
2018-07-14T15:05:37.667Z,23.78
2018-07-14T15:06:37.630Z,23.71
2018-07-14T15:08:30.379Z,23.72
2018-07-14T15:09:30.317Z,23.79
2018-07-14T15:11:23.085Z,23.78
2018-07-14T15:12:23.029Z,23.77
2018-07-14T15:14:15.841Z,23.79
2018-07-14T15:15:15.780Z,23.74
2018-07-14T15:17:08.675Z,23.74
2018-07-14T15:18:08.614Z,23.74
2018-07-14T15:20:01.403Z,23.68
2018-07-14T15:21:01.331Z,23.77
2018-07-14T15:22:54.122Z,23.72
2018-07-14T15:23:54.044Z,23.71
2018-07-14T15:25:46.940Z,23.69
2018-07-14T15:26:46.834Z,23.71
2018-07-14T15:28:39.728Z,23.77
2018-07-14T15:29:39.624Z,23.74
2018-07-14T15:31:32.450Z,23.74
2018-07-14T15:32:32.449Z,23.64
2018-07-14T15:34:25.169Z,23.69
2018-07-14T15:35:25.090Z,23.74
2018-07-14T15:37:17.913Z,23.67
2018-07-14T15:38:17.850Z,23.69
2018-07-14T15:40:10.676Z,23.81
2018-07-14T15:41:10.591Z,23.69
2018-07-14T15:43:03.550Z,23.75
2018-07-14T15:44:03.412Z,23.77
2018-07-14T15:45:56.206Z,23.72
2018-07-14T15:46:56.139Z,23.72
2018-07-14T15:48:49.011Z,23.64
2018-07-14T15:49:48.894Z,23.69
2018-07-14T15:51:41.705Z,23.63
2018-07-14T15:52:41.641Z,23.69
2018-07-14T15:54:34.677Z,23.64
2018-07-14T15:55:34.405Z,23.68
2018-07-14T15:57:27.224Z,23.64
2018-07-14T15:58:27.166Z,23.62
2018-07-14T16:00:20.064Z,23.64
2018-07-14T16:01:19.924Z,23.60
2018-07-14T16:03:12.791Z,23.68
2018-07-14T16:04:12.706Z,23.64
2018-07-14T16:06:05.499Z,23.63
2018-07-14T16:07:05.438Z,23.68
2018-07-14T16:08:58.241Z,23.67
2018-07-14T16:09:58.175Z,23.68
2018-07-14T16:11:50.985Z,23.57
2018-07-14T16:12:50.914Z,23.63
2018-07-14T16:14:43.761Z,23.67
2018-07-14T16:15:43.683Z,23.64
2018-07-14T16:17:36.481Z,23.54
2018-07-14T16:18:36.396Z,23.42
2018-07-14T16:20:29.209Z,23.60
2018-07-14T16:21:29.150Z,23.47
2018-07-14T16:23:21.988Z,23.49
2018-07-14T16:24:21.855Z,23.42
2018-07-14T16:26:14.696Z,23.47
2018-07-14T16:27:14.589Z,23.44
2018-07-14T16:29:08.603Z,23.39
2018-07-14T16:30:08.248Z,23.44
2018-07-14T16:32:01.126Z,23.38
2018-07-14T16:33:00.972Z,23.44
2018-07-14T16:34:53.748Z,23.38
2018-07-14T16:35:53.725Z,23.42
2018-07-14T16:37:46.461Z,23.37
2018-07-14T16:38:46.403Z,23.38
2018-07-14T16:40:39.273Z,23.23
2018-07-14T16:41:39.125Z,23.23
2018-07-14T16:43:31.953Z,23.26
2018-07-14T16:44:31.863Z,23.22
2018-07-14T16:46:24.711Z,23.25
2018-07-14T16:47:24.621Z,23.26
2018-07-14T16:49:17.453Z,23.21
2018-07-14T16:50:17.526Z,23.21
2018-07-14T16:52:10.344Z,23.39
2018-07-14T16:53:10.227Z,23.25
2018-07-14T16:55:03.063Z,23.19
2018-07-14T16:56:02.980Z,23.29
2018-07-14T16:57:55.764Z,23.22
2018-07-14T16:58:55.813Z,23.21
2018-07-14T17:00:48.525Z,23.22
2018-07-14T17:01:48.523Z,23.15
2018-07-14T17:03:41.277Z,23.09
2018-07-14T17:04:41.215Z,23.04
2018-07-14T17:06:33.980Z,23.06
2018-07-14T17:07:33.916Z,23.11
2018-07-14T17:09:26.790Z,22.99
2018-07-14T17:10:26.833Z,22.97
2018-07-14T17:12:19.549Z,22.99
2018-07-14T17:13:19.491Z,22.97
2018-07-14T17:15:12.286Z,22.97
2018-07-14T17:16:12.209Z,22.97
2018-07-14T17:18:05.007Z,22.96
2018-07-14T17:19:04.951Z,22.91
2018-07-14T17:20:57.922Z,22.88
2018-07-14T17:21:57.858Z,22.84
2018-07-14T17:23:50.653Z,22.85
2018-07-14T17:24:50.566Z,22.81
2018-07-14T17:26:43.362Z,22.79
2018-07-14T17:27:43.302Z,22.74
2018-07-14T17:29:36.098Z,22.63
2018-07-14T17:30:36.033Z,22.66
2018-07-14T17:32:28.892Z,22.63
2018-07-14T17:33:28.792Z,22.69
2018-07-14T17:35:21.571Z,22.52
2018-07-14T17:36:21.483Z,22.56
2018-07-14T17:38:14.326Z,22.41
2018-07-14T17:39:14.208Z,22.51
2018-07-14T17:41:07.072Z,22.54
2018-07-14T17:42:06.968Z,22.48
2018-07-14T17:43:59.870Z,22.46
2018-07-14T17:44:59.654Z,22.54
2018-07-14T17:46:52.466Z,22.45
2018-07-14T17:47:52.403Z,22.41
2018-07-14T17:49:45.469Z,22.41
2018-07-14T17:50:45.392Z,22.45
2018-07-14T17:52:38.186Z,22.51
2018-07-14T17:53:38.143Z,22.41
2018-07-14T17:55:30.921Z,22.44
2018-07-14T17:56:30.853Z,22.42
2018-07-14T17:58:23.634Z,22.29
2018-07-14T17:59:23.581Z,22.35
2018-07-14T18:01:16.360Z,22.27
2018-07-14T18:02:16.300Z,22.21
2018-07-14T18:04:09.052Z,22.23
2018-07-14T18:05:09.002Z,22.15
2018-07-14T18:07:01.799Z,22.09
2018-07-14T18:08:01.732Z,22.14
2018-07-14T18:09:54.695Z,22.05
2018-07-14T18:10:54.624Z,21.99
2018-07-14T18:12:47.443Z,21.83
2018-07-14T18:13:47.375Z,21.89
2018-07-14T18:15:40.201Z,21.79
2018-07-14T18:16:40.244Z,21.75
2018-07-14T18:18:32.892Z,21.70
2018-07-14T18:19:32.845Z,21.70
2018-07-14T18:21:25.618Z,21.63
2018-07-14T18:22:25.543Z,21.63
2018-07-14T18:24:18.322Z,21.63
2018-07-14T18:25:18.388Z,21.59
2018-07-14T18:27:11.073Z,21.71
2018-07-14T18:28:11.019Z,21.68
2018-07-14T18:30:03.803Z,21.61
2018-07-14T18:31:03.719Z,21.61
2018-07-14T18:32:56.511Z,21.45